Time;durP1;ratioP1;P1;durP2;ratioP2;P2;SDS_P1;SDS_P2;PMS_P1;PMS_P2;Temp;Humidity;BMP_temperature;BMP_pressure;BME280_temperature;BME280_humidity;BME280_pressure;Samples;Min_cycle;Max_cycle;Signal;HPM_P1;HPM_P2
2021/06/21 00:00:09;;;;;;;14.18;5.57;;;18.20;93.20;;;;;;5079371;28;20024;-86
2021/06/21 00:02:36;;;;;;;7.93;4.78;;;18.10;93.30;;;;;;5068985;28;20028;-88
2021/06/21 00:05:02;;;;;;;9.93;6.13;;;18.00;93.50;;;;;;5075180;28;20029;-87
2021/06/21 00:07:28;;;;;;;10.40;6.10;;;17.90;93.60;;;;;;5072600;28;20732;-88
2021/06/21 00:09:53;;;;;;;9.90;6.38;;;17.80;93.80;;;;;;5067770;28;20065;-87
2021/06/21 00:12:19;;;;;;;9.82;5.63;;;17.70;94.00;;;;;;5066072;28;20025;-88
2021/06/21 00:14:45;;;;;;;12.18;7.47;;;17.70;94.10;;;;;;5065079;28;20024;-86
2021/06/21 00:17:11;;;;;;;8.93;6.13;;;17.60;94.50;;;;;;5076213;28;20098;-87
2021/06/21 00:19:37;;;;;;;11.43;7.20;;;17.50;94.60;;;;;;5070957;28;20476;-87
2021/06/21 00:22:05;;;;;;;9.45;7.55;;;17.50;95.00;;;;;;5070814;28;20095;-87
2021/06/21 00:24:31;;;;;;;10.65;7.50;;;17.40;94.90;;;;;;5066729;28;20473;-87
2021/06/21 00:26:57;;;;;;;10.43;6.72;;;17.30;94.90;;;;;;5069967;28;20021;-88
2021/06/21 00:29:22;;;;;;;12.68;8.20;;;17.30;95.00;;;;;;5060217;28;20268;-87
2021/06/21 00:31:48;;;;;;;10.48;6.68;;;17.30;95.10;;;;;;5054660;28;20029;-88
2021/06/21 00:34:13;;;;;;;10.55;7.60;;;17.20;95.10;;;;;;5069448;28;20070;-88
2021/06/21 00:36:39;;;;;;;11.55;7.35;;;17.20;95.20;;;;;;5072003;28;20092;-87
2021/06/21 00:39:07;;;;;;;12.85;7.18;;;17.20;95.20;;;;;;5070891;28;20035;-88
2021/06/21 00:41:34;;;;;;;10.05;8.05;;;17.10;95.20;;;;;;5060914;28;20036;-87
2021/06/21 00:43:59;;;;;;;10.02;7.90;;;17.00;95.30;;;;;;5059391;28;20020;-88
2021/06/21 00:46:25;;;;;;;10.95;8.82;;;17.00;95.30;;;;;;5067115;28;20047;-87
2021/06/21 00:48:50;;;;;;;13.10;8.75;;;16.90;95.40;;;;;;5068339;28;20515;-87
2021/06/21 00:51:16;;;;;;;10.80;8.25;;;16.90;95.50;;;;;;5075635;28;20070;-86
2021/06/21 00:53:43;;;;;;;12.57;10.20;;;16.80;95.50;;;;;;5069739;28;20098;-87
2021/06/21 00:56:09;;;;;;;13.05;11.30;;;16.70;95.60;;;;;;5069018;28;20134;-88
2021/06/21 00:58:35;;;;;;;18.05;11.85;;;16.60;95.60;;;;;;5075174;28;20020;-87
2021/06/21 01:01:01;;;;;;;16.90;12.60;;;16.50;95.70;;;;;;5074604;28;20028;-88
2021/06/21 01:03:27;;;;;;;15.20;11.52;;;16.50;95.80;;;;;;5071442;28;20094;-86
2021/06/21 01:05:52;;;;;;;19.08;11.85;;;16.40;95.90;;;;;;5067663;28;20025;-87
2021/06/21 01:08:18;;;;;;;12.02;10.57;;;16.40;96.00;;;;;;5074548;28;20025;-86
2021/06/21 01:10:46;;;;;;;16.42;11.90;;;16.30;96.00;;;;;;5074381;28;20389;-86
2021/06/21 01:13:55;;;;;;;16.63;12.95;;;16.30;96.20;;;;;;5067007;28;20063;-87
2021/06/21 01:16:25;;;;;;;21.25;14.10;;;16.20;96.20;;;;;;5075047;28;20036;-86
2021/06/21 01:18:53;;;;;;;18.10;12.70;;;16.20;96.40;;;;;;5074191;28;20024;-86
2021/06/21 01:21:56;;;;;;;17.35;14.13;;;16.10;96.40;;;;;;5070613;28;20025;-86
2021/06/21 01:24:57;;;;;;;18.50;12.88;;;16.10;96.50;;;;;;5072383;28;20024;-87
2021/06/21 01:27:37;;;;;;;17.80;12.88;;;16.00;96.50;;;;;;5077697;28;20033;-86
2021/06/21 01:30:12;;;;;;;17.95;14.48;;;16.00;96.60;;;;;;5073694;28;20020;-87
2021/06/21 01:32:44;;;;;;;17.98;13.65;;;15.90;96.70;;;;;;5073227;28;20031;-87
2021/06/21 01:35:18;;;;;;;17.08;12.70;;;15.90;96.70;;;;;;5067546;28;20020;-86
2021/06/21 01:37:46;;;;;;;17.08;12.70;;;15.80;96.80;;;;;;5074294;28;20036;-87
2021/06/21 01:40:16;;;;;;;19.83;14.27;;;15.80;96.80;;;;;;5069108;28;20050;-87
2021/06/21 01:42:48;;;;;;;21.08;13.07;;;15.80;96.90;;;;;;5070676;28;20029;-88
2021/06/21 01:45:16;;;;;;;18.25;13.35;;;15.70;96.80;;;;;;5071092;28;20548;-87
2021/06/21 01:47:45;;;;;;;18.65;13.82;;;15.60;96.80;;;;;;5069500;28;20049;-87
2021/06/21 01:50:14;;;;;;;19.17;12.77;;;15.60;96.90;;;;;;5072521;28;20024;-87
2021/06/21 01:52:43;;;;;;;23.60;15.38;;;15.50;97.00;;;;;;5073624;28;20025;-87
2021/06/21 01:55:13;;;;;;;18.95;14.18;;;15.50;97.10;;;;;;5073127;28;20028;-88
2021/06/21 01:57:39;;;;;;;22.35;14.68;;;15.40;97.10;;;;;;5053515;28;20245;-86
2021/06/21 02:00:08;;;;;;;21.10;15.35;;;15.50;97.20;;;;;;5070306;28;20144;-87
2021/06/21 02:02:35;;;;;;;17.88;13.27;;;15.40;97.20;;;;;;5072458;28;20032;-86
2021/06/21 02:05:02;;;;;;;15.70;12.35;;;15.40;97.30;;;;;;5072905;28;20048;-87
2021/06/21 02:07:28;;;;;;;23.05;15.95;;;15.40;97.20;;;;;;5073594;28;20032;-87
2021/06/21 02:09:55;;;;;;;19.98;13.90;;;15.40;97.30;;;;;;5065520;28;20031;-86
2021/06/21 02:12:22;;;;;;;22.30;14.45;;;15.30;97.30;;;;;;5070527;28;20028;-86
2021/06/21 02:14:50;;;;;;;18.73;14.05;;;15.30;97.20;;;;;;5070410;28;20111;-86
2021/06/21 02:17:19;;;;;;;23.35;12.80;;;15.30;97.30;;;;;;5069360;28;20036;-86
2021/06/21 02:19:45;;;;;;;20.55;14.02;;;15.30;97.40;;;;;;5064367;28;20021;-86
2021/06/21 02:22:10;;;;;;;23.02;15.35;;;15.20;97.40;;;;;;5068783;28;20028;-87
2021/06/21 02:24:37;;;;;;;16.73;12.43;;;15.20;97.40;;;;;;5071445;28;20039;-87
2021/06/21 02:27:05;;;;;;;16.00;11.65;;;15.20;97.40;;;;;;5072980;28;20027;-86
2021/06/21 02:29:31;;;;;;;19.45;12.02;;;15.20;97.50;;;;;;5071733;28;20432;-87
2021/06/21 02:31:57;;;;;;;17.75;12.52;;;15.10;97.50;;;;;;5070780;28;20052;-86
2021/06/21 02:34:23;;;;;;;19.90;13.40;;;15.10;97.50;;;;;;5072448;28;20033;-86
2021/06/21 02:36:49;;;;;;;16.80;12.30;;;15.10;97.60;;;;;;5071109;28;20044;-86
2021/06/21 02:39:15;;;;;;;18.75;12.73;;;15.00;97.60;;;;;;5072005;28;20025;-86
2021/06/21 02:41:41;;;;;;;17.00;12.63;;;15.00;97.70;;;;;;5071667;28;20078;-86
2021/06/21 02:44:07;;;;;;;20.95;14.00;;;15.00;97.70;;;;;;5060665;28;20555;-86
2021/06/21 02:46:33;;;;;;;19.13;12.82;;;15.00;97.80;;;;;;5069057;28;20031;-88
2021/06/21 02:49:00;;;;;;;14.45;11.48;;;15.00;97.80;;;;;;5065233;28;20048;-87
2021/06/21 02:51:52;;;;;;;17.20;12.70;;;14.90;97.80;;;;;;5054246;28;20428;-86
2021/06/21 02:54:43;;;;;;;19.30;13.32;;;14.90;97.90;;;;;;5069676;28;20078;-86
2021/06/21 02:57:19;;;;;;;15.95;11.00;;;14.90;97.80;;;;;;5072194;28;20523;-86
2021/06/21 02:59:46;;;;;;;19.65;11.90;;;14.80;97.90;;;;;;5066768;28;20029;-86
2021/06/21 03:02:15;;;;;;;15.85;10.63;;;14.80;97.90;;;;;;5069539;28;20056;-87
2021/06/21 03:04:42;;;;;;;20.10;11.50;;;14.80;97.90;;;;;;5063517;28;20021;-86
2021/06/21 03:07:11;;;;;;;21.90;12.05;;;14.80;98.00;;;;;;5072247;28;20055;-87
2021/06/21 03:09:41;;;;;;;12.88;10.20;;;14.80;98.10;;;;;;5079513;28;20029;-87
2021/06/21 03:12:08;;;;;;;13.20;9.45;;;14.70;98.10;;;;;;5069414;28;20492;-86
2021/06/21 03:14:34;;;;;;;16.70;9.93;;;14.70;98.10;;;;;;5053552;28;20021;-86
2021/06/21 03:17:06;;;;;;;15.25;10.00;;;14.60;98.20;;;;;;5066660;28;20078;-87
2021/06/21 03:19:31;;;;;;;15.70;10.10;;;14.60;98.10;;;;;;5053858;28;20485;-87
2021/06/21 03:21:57;;;;;;;10.63;8.38;;;14.60;98.20;;;;;;5067949;28;20035;-87
2021/06/21 03:24:23;;;;;;;14.68;8.75;;;14.50;98.20;;;;;;5064686;28;20557;-87
2021/06/21 03:26:49;;;;;;;13.07;8.95;;;14.50;98.30;;;;;;5071977;28;20062;-87
2021/06/21 03:29:17;;;;;;;10.50;7.97;;;14.50;98.40;;;;;;5072494;28;20028;-86
2021/06/21 03:31:50;;;;;;;10.60;7.93;;;14.40;98.40;;;;;;5058819;28;20033;-86
2021/06/21 03:34:18;;;;;;;7.78;5.85;;;14.40;98.40;;;;;;5069403;28;20025;-88
2021/06/21 03:36:44;;;;;;;11.98;7.07;;;14.40;98.50;;;;;;5066943;28;20040;-87
2021/06/21 03:39:10;;;;;;;9.52;5.90;;;14.30;98.50;;;;;;5072750;28;20032;-88
2021/06/21 03:41:36;;;;;;;9.32;6.82;;;14.30;98.60;;;;;;5068667;28;20028;-87
2021/06/21 03:44:02;;;;;;;13.75;6.88;;;14.30;98.60;;;;;;5082835;28;20028;-87
2021/06/21 03:46:29;;;;;;;10.98;6.22;;;14.30;98.70;;;;;;5061752;28;20041;-87
2021/06/21 03:48:56;;;;;;;8.55;5.47;;;14.30;98.60;;;;;;5072364;28;20040;-86
2021/06/21 03:51:22;;;;;;;9.77;5.90;;;14.30;98.70;;;;;;5068166;28;20028;-87
2021/06/21 03:53:48;;;;;;;10.05;5.53;;;14.20;98.60;;;;;;5069058;28;20032;-87
2021/06/21 03:56:14;;;;;;;10.13;5.10;;;14.10;98.60;;;;;;5063520;28;20041;-86
2021/06/21 03:58:40;;;;;;;9.30;4.75;;;14.10;98.70;;;;;;5065267;28;20026;-86
2021/06/21 04:01:05;;;;;;;7.45;5.28;;;14.00;98.80;;;;;;5069143;28;20037;-86
2021/06/21 04:03:31;;;;;;;7.82;5.40;;;14.00;98.80;;;;;;5071083;28;20498;-87
2021/06/21 04:05:57;;;;;;;9.57;6.38;;;14.00;98.80;;;;;;5070518;28;20028;-86
2021/06/21 04:08:23;;;;;;;7.10;5.05;;;14.00;98.90;;;;;;5061371;28;20032;-87
2021/06/21 04:10:50;;;;;;;7.40;4.40;;;13.90;98.90;;;;;;5068043;28;20025;-86
2021/06/21 04:13:17;;;;;;;7.70;5.60;;;13.80;99.00;;;;;;5072107;28;20021;-86
2021/06/21 04:15:43;;;;;;;7.38;4.97;;;13.80;99.00;;;;;;5067633;28;20028;-86
2021/06/21 04:18:11;;;;;;;10.45;4.90;;;13.80;99.10;;;;;;5069254;28;20523;-86
2021/06/21 04:20:38;;;;;;;8.32;5.10;;;13.80;99.20;;;;;;5070558;28;20032;-86
2021/06/21 04:23:06;;;;;;;7.97;5.22;;;13.80;99.20;;;;;;5075274;28;20024;-85
2021/06/21 04:25:31;;;;;;;6.93;4.43;;;13.80;99.30;;;;;;5072504;28;20025;-86
2021/06/21 04:27:57;;;;;;;7.25;4.57;;;13.80;99.30;;;;;;5063049;28;20439;-87
2021/06/21 04:30:24;;;;;;;8.25;4.85;;;13.80;99.40;;;;;;5085640;28;20509;-86
2021/06/21 04:32:51;;;;;;;8.57;5.28;;;13.70;99.40;;;;;;5072830;28;20031;-86
2021/06/21 04:35:19;;;;;;;8.50;4.65;;;13.70;99.50;;;;;;5074655;28;20039;-86
2021/06/21 04:37:45;;;;;;;6.60;3.90;;;13.80;99.50;;;;;;5065218;28;20037;-86
2021/06/21 04:40:12;;;;;;;6.45;4.35;;;13.80;99.60;;;;;;5061848;28;20487;-86
2021/06/21 04:42:38;;;;;;;6.47;4.60;;;13.70;99.60;;;;;;5074159;28;20029;-86
2021/06/21 04:45:05;;;;;;;7.10;4.30;;;13.80;99.60;;;;;;5073292;28;20036;-87
2021/06/21 04:47:31;;;;;;;9.07;4.38;;;13.70;99.70;;;;;;5072056;28;20515;-87
2021/06/21 04:49:57;;;;;;;5.82;4.03;;;13.80;99.80;;;;;;5073324;28;20025;-87
2021/06/21 04:52:25;;;;;;;8.73;4.18;;;13.80;99.80;;;;;;5074598;28;20385;-86
2021/06/21 04:54:51;;;;;;;6.80;3.63;;;13.80;99.90;;;;;;5065546;28;20028;-87
2021/06/21 04:57:17;;;;;;;5.85;3.55;;;13.80;99.90;;;;;;5068159;28;20036;-87
2021/06/21 04:59:43;;;;;;;6.18;3.60;;;13.80;99.90;;;;;;5066710;28;20041;-87
2021/06/21 05:02:09;;;;;;;6.53;3.90;;;13.80;99.90;;;;;;5065525;28;20029;-86
2021/06/21 05:04:34;;;;;;;7.55;3.78;;;13.80;99.90;;;;;;5073171;28;20078;-86
2021/06/21 05:07:00;;;;;;;6.43;3.55;;;13.80;99.90;;;;;;5071449;28;20051;-87
2021/06/21 05:09:26;;;;;;;8.23;4.30;;;13.80;99.90;;;;;;5068684;28;20029;-87
2021/06/21 05:11:51;;;;;;;6.93;3.53;;;13.80;99.90;;;;;;5056094;28;20420;-86
2021/06/21 05:14:17;;;;;;;5.65;2.83;;;13.80;99.90;;;;;;5075196;28;20511;-86
2021/06/21 05:16:43;;;;;;;8.02;3.88;;;13.80;99.90;;;;;;5063163;28;20059;-86
2021/06/21 05:19:09;;;;;;;5.03;2.92;;;13.80;99.90;;;;;;5070150;28;20024;-86
2021/06/21 05:21:35;;;;;;;5.50;2.63;;;13.80;99.90;;;;;;5062783;28;20036;-86
2021/06/21 05:24:00;;;;;;;4.40;2.85;;;13.80;99.90;;;;;;5074894;28;20025;-86
2021/06/21 05:26:26;;;;;;;4.53;2.85;;;13.90;99.90;;;;;;5073598;28;20027;-86
2021/06/21 05:28:52;;;;;;;5.57;3.10;;;13.80;99.90;;;;;;5073243;28;20020;-86
2021/06/21 05:31:17;;;;;;;5.75;2.60;;;13.80;99.90;;;;;;5071659;28;20055;-86
2021/06/21 05:33:43;;;;;;;4.43;2.67;;;13.80;99.90;;;;;;5074687;28;20021;-86
2021/06/21 05:36:10;;;;;;;5.78;2.88;;;13.80;99.90;;;;;;5069662;28;20063;-86
2021/06/21 05:38:35;;;;;;;4.07;2.70;;;13.80;99.90;;;;;;5074687;28;20017;-86
2021/06/21 05:41:01;;;;;;;6.30;2.60;;;13.80;99.90;;;;;;5072685;28;20044;-86
2021/06/21 05:43:26;;;;;;;4.60;2.83;;;13.80;99.90;;;;;;5070190;28;20028;-86
2021/06/21 05:45:53;;;;;;;5.00;2.22;;;13.80;99.90;;;;;;5070260;28;20078;-87
2021/06/21 05:48:18;;;;;;;5.13;2.47;;;13.80;99.90;;;;;;5065083;28;20045;-86
2021/06/21 05:50:45;;;;;;;5.38;2.50;;;13.80;99.90;;;;;;5068527;28;20044;-86
2021/06/21 05:53:10;;;;;;;5.43;2.47;;;13.80;99.90;;;;;;5074045;28;20052;-86
2021/06/21 05:55:36;;;;;;;5.43;2.83;;;13.80;99.90;;;;;;5070270;28;20435;-86
2021/06/21 05:58:01;;;;;;;4.40;2.22;;;13.90;99.90;;;;;;5073404;28;20038;-86
2021/06/21 06:00:27;;;;;;;5.50;2.22;;;13.90;99.90;;;;;;5072177;28;20126;-86
2021/06/21 06:02:53;;;;;;;4.90;2.55;;;13.80;99.90;;;;;;5074074;28;20028;-86
2021/06/21 06:05:18;;;;;;;4.50;2.58;;;13.90;99.90;;;;;;5072791;28;20033;-86
2021/06/21 06:07:45;;;;;;;4.15;2.10;;;13.90;99.90;;;;;;5066228;28;20487;-84
2021/06/21 06:10:11;;;;;;;5.40;2.58;;;13.90;99.90;;;;;;5068057;28;20411;-86
2021/06/21 06:12:37;;;;;;;3.58;2.10;;;13.90;99.90;;;;;;5069533;28;20028;-86
2021/06/21 06:15:03;;;;;;;3.40;2.08;;;13.90;99.90;;;;;;5073767;28;20028;-86
2021/06/21 06:17:29;;;;;;;4.22;2.60;;;13.90;99.90;;;;;;5072513;28;20083;-85
2021/06/21 06:19:54;;;;;;;3.63;2.13;;;13.90;99.90;;;;;;5073018;28;20025;-85
2021/06/21 06:22:20;;;;;;;3.75;2.38;;;13.90;99.90;;;;;;5072546;28;20031;-85
2021/06/21 06:24:46;;;;;;;3.50;2.22;;;13.90;99.90;;;;;;5072409;28;20032;-85
2021/06/21 06:27:12;;;;;;;3.65;2.13;;;13.90;99.90;;;;;;5071108;28;20028;-85
2021/06/21 06:29:38;;;;;;;3.85;2.20;;;13.90;99.90;;;;;;5074031;28;20038;-85
2021/06/21 06:32:04;;;;;;;3.50;2.03;;;13.90;99.90;;;;;;5073141;28;20032;-85
2021/06/21 06:34:30;;;;;;;4.80;1.73;;;13.80;99.90;;;;;;5072927;28;20043;-85
2021/06/21 06:36:56;;;;;;;4.38;2.33;;;13.80;99.90;;;;;;5072318;28;20032;-86
2021/06/21 06:39:22;;;;;;;3.08;1.58;;;13.80;99.90;;;;;;5072828;28;20040;-85
2021/06/21 06:41:48;;;;;;;4.07;1.83;;;13.80;99.90;;;;;;5072702;28;20464;-85
2021/06/21 06:44:13;;;;;;;4.70;1.65;;;13.80;99.90;;;;;;5072238;28;20051;-85
2021/06/21 06:46:40;;;;;;;2.70;1.70;;;13.80;99.90;;;;;;5072783;28;20031;-84
2021/06/21 06:49:05;;;;;;;2.67;1.63;;;13.80;99.90;;;;;;5072788;28;20400;-85
2021/06/21 06:51:38;;;;;;;3.10;1.95;;;13.80;99.90;;;;;;5070341;28;20028;-84
2021/06/21 06:54:11;;;;;;;;;;;13.80;99.90;;;;;;5073298;28;20024;-85
2021/06/21 06:56:58;;;;;;;3.30;1.80;;;13.80;99.90;;;;;;5068530;28;19982;-85
2021/06/21 06:59:22;;;;;;;2.78;1.75;;;13.80;99.90;;;;;;5072661;28;20123;-86
2021/06/21 07:01:48;;;;;;;2.30;1.50;;;13.80;99.90;;;;;;5068424;28;20124;-85
2021/06/21 07:04:14;;;;;;;3.03;2.05;;;13.80;99.90;;;;;;5066080;28;20025;-86
2021/06/21 07:06:39;;;;;;;2.63;2.00;;;13.80;99.90;;;;;;5066737;28;20036;-86
2021/06/21 07:09:05;;;;;;;3.13;1.58;;;13.80;99.90;;;;;;5071067;28;20032;-85
2021/06/21 07:11:35;;;;;;;3.97;2.22;;;13.80;99.90;;;;;;5071831;28;20077;-85
2021/06/21 07:14:02;;;;;;;2.80;1.52;;;13.90;99.90;;;;;;5071222;28;20518;-84
2021/06/21 07:16:27;;;;;;;3.60;1.60;;;13.90;99.90;;;;;;5071896;28;20029;-85
2021/06/21 07:18:53;;;;;;;2.85;1.88;;;13.90;99.90;;;;;;5070784;28;20025;-84
2021/06/21 07:21:18;;;;;;;3.20;2.30;;;13.90;99.90;;;;;;5066863;28;20060;-85
2021/06/21 07:23:43;;;;;;;3.17;2.40;;;13.90;99.90;;;;;;5068819;28;20046;-84
2021/06/21 07:26:09;;;;;;;3.35;2.55;;;13.90;99.90;;;;;;5070091;28;20583;-84
2021/06/21 07:28:35;;;;;;;4.57;2.60;;;14.00;99.90;;;;;;5068389;28;20031;-84
2021/06/21 07:31:00;;;;;;;3.22;2.17;;;14.00;99.90;;;;;;5065037;28;20028;-85
2021/06/21 07:33:26;;;;;;;3.78;2.90;;;14.00;99.90;;;;;;5068265;28;20025;-85
2021/06/21 07:35:51;;;;;;;3.47;2.70;;;14.00;99.90;;;;;;5064778;28;20031;-85
2021/06/21 07:38:19;;;;;;;3.30;2.13;;;14.00;99.90;;;;;;5062911;28;20087;-84
2021/06/21 07:40:44;;;;;;;4.32;2.33;;;14.00;99.90;;;;;;5063341;28;20032;-84
2021/06/21 07:43:10;;;;;;;5.65;2.28;;;14.00;99.90;;;;;;5063092;28;20392;-84
2021/06/21 07:45:35;;;;;;;3.30;2.20;;;14.00;99.90;;;;;;5067471;28;20055;-84
2021/06/21 07:48:01;;;;;;;3.78;2.13;;;14.10;99.90;;;;;;5069603;28;20066;-85
2021/06/21 07:50:28;;;;;;;2.53;1.80;;;14.10;99.90;;;;;;5062409;28;20029;-86
2021/06/21 07:53:02;;;;;;;2.58;1.75;;;14.10;99.90;;;;;;5064766;28;20021;-86
2021/06/21 07:55:28;;;;;;;4.32;2.30;;;14.10;99.90;;;;;;5068611;28;20054;-86
2021/06/21 07:57:55;;;;;;;2.72;1.60;;;14.10;99.90;;;;;;5067966;28;20081;-87
2021/06/21 08:00:24;;;;;;;3.85;1.95;;;14.20;99.90;;;;;;5071433;28;20020;-86
2021/06/21 08:02:51;;;;;;;2.78;1.90;;;14.20;99.90;;;;;;5066101;28;20033;-86
2021/06/21 08:05:16;;;;;;;3.78;1.92;;;14.20;99.90;;;;;;5073425;28;20031;-86
2021/06/21 08:07:42;;;;;;;3.38;1.88;;;14.20;99.90;;;;;;5073368;28;20020;-87
2021/06/21 08:10:09;;;;;;;3.38;1.80;;;14.20;99.90;;;;;;5057326;28;20572;-86
2021/06/21 08:12:34;;;;;;;3.08;2.05;;;14.30;99.90;;;;;;5067544;28;20035;-87
2021/06/21 08:15:00;;;;;;;2.92;2.25;;;14.30;99.90;;;;;;5071323;28;20107;-86
2021/06/21 08:17:26;;;;;;;3.03;2.10;;;14.30;99.90;;;;;;5063592;28;20476;-87
2021/06/21 08:19:51;;;;;;;3.20;2.17;;;14.30;99.90;;;;;;5057949;28;20188;-87
2021/06/21 08:22:21;;;;;;;3.65;1.95;;;14.40;99.90;;;;;;5068445;28;20032;-86
2021/06/21 08:24:48;;;;;;;3.97;2.00;;;14.40;99.90;;;;;;5070079;28;20048;-86
2021/06/21 08:27:13;;;;;;;4.57;2.63;;;14.50;99.90;;;;;;5052605;28;20028;-87
2021/06/21 08:29:39;;;;;;;5.18;2.10;;;14.50;99.90;;;;;;5056232;28;20017;-87
2021/06/21 08:32:05;;;;;;;3.55;2.08;;;14.50;99.90;;;;;;5069373;28;20473;-87
2021/06/21 08:34:30;;;;;;;3.92;2.55;;;14.50;99.90;;;;;;5071743;28;20504;-87
2021/06/21 08:36:56;;;;;;;3.58;2.15;;;14.50;99.90;;;;;;5069489;28;20037;-87
2021/06/21 08:39:22;;;;;;;2.85;1.55;;;14.60;99.90;;;;;;5072646;28;20155;-87
2021/06/21 08:41:47;;;;;;;3.75;1.98;;;14.60;99.90;;;;;;5072112;28;20138;-86
2021/06/21 08:44:13;;;;;;;3.47;2.60;;;14.60;99.90;;;;;;5071651;28;20103;-86
2021/06/21 08:46:40;;;;;;;2.97;1.92;;;14.60;99.90;;;;;;5062807;28;20028;-86
2021/06/21 08:49:05;;;;;;;3.50;2.70;;;14.60;99.90;;;;;;5060180;28;20045;-86
2021/06/21 08:51:34;;;;;;;4.55;2.45;;;14.60;99.90;;;;;;5071316;28;20107;-86
2021/06/21 08:54:00;;;;;;;4.90;2.72;;;14.60;99.90;;;;;;5058332;28;20023;-86
2021/06/21 08:56:25;;;;;;;3.50;2.50;;;14.60;99.90;;;;;;5059643;28;20028;-86
2021/06/21 08:58:51;;;;;;;5.20;3.45;;;14.70;99.90;;;;;;5063863;28;20466;-86
2021/06/21 09:01:16;;;;;;;6.10;3.67;;;14.70;99.90;;;;;;5053468;28;20036;-86
2021/06/21 09:03:43;;;;;;;4.43;2.97;;;14.70;99.90;;;;;;5071617;28;20044;-86
2021/06/21 09:06:22;;;;;;;6.05;3.65;;;14.80;99.90;;;;;;5071069;28;20029;-86
2021/06/21 09:08:56;;;;;;;4.57;2.88;;;14.70;99.90;;;;;;5069949;28;20032;-90
2021/06/21 09:11:44;;;;;;;4.07;3.33;;;14.80;99.90;;;;;;5070468;28;20029;-86
2021/06/21 09:14:39;;;;;;;4.32;3.63;;;14.80;99.90;;;;;;5073343;28;20506;-86
2021/06/21 09:17:08;;;;;;;5.32;3.53;;;14.90;99.90;;;;;;5057734;28;20071;-86
2021/06/21 09:20:07;;;;;;;4.55;3.08;;;14.90;99.90;;;;;;5074595;28;20025;-86
2021/06/21 09:22:38;;;;;;;3.67;3.10;;;14.90;99.90;;;;;;5033368;28;20118;-86
2021/06/21 09:25:15;;;;;;;6.57;3.70;;;14.90;99.90;;;;;;5062049;28;20120;-86
2021/06/21 09:27:55;;;;;;;7.65;3.45;;;15.00;99.90;;;;;;5070808;28;20033;-86
2021/06/21 09:30:21;;;;;;;4.57;3.28;;;15.00;99.90;;;;;;5073824;28;20074;-86
2021/06/21 09:32:49;;;;;;;5.15;3.42;;;15.10;99.90;;;;;;5087112;28;20488;-87
2021/06/21 09:35:30;;;;;;;6.15;3.88;;;15.10;99.90;;;;;;5074765;28;20112;-86
2021/06/21 09:38:11;;;;;;;5.97;4.40;;;15.10;99.90;;;;;;5073997;28;20036;-86
2021/06/21 09:40:49;;;;;;;6.00;4.45;;;15.10;99.90;;;;;;5073851;28;20032;-86
2021/06/21 09:43:19;;;;;;;5.88;4.63;;;15.10;99.90;;;;;;5073563;28;20024;-87
2021/06/21 09:46:10;;;;;;;6.28;5.18;;;15.10;99.90;;;;;;5074303;28;20044;-87
2021/06/21 09:48:52;;;;;;;6.00;5.40;;;15.10;99.90;;;;;;5073552;28;20036;-87
2021/06/21 09:51:32;;;;;;;5.75;4.50;;;15.00;99.90;;;;;;5070524;28;20107;-86
2021/06/21 09:54:11;;;;;;;6.45;4.63;;;15.00;99.90;;;;;;5071670;28;20090;-85
2021/06/21 09:56:43;;;;;;;7.28;5.18;;;14.90;99.90;;;;;;5070213;28;20119;-86
2021/06/21 09:59:28;;;;;;;5.27;4.77;;;15.00;99.90;;;;;;5069252;28;20040;-86
2021/06/21 10:02:00;;;;;;;7.43;5.55;;;14.90;99.90;;;;;;5085205;28;20328;-86
2021/06/21 10:04:26;;;;;;;9.07;7.72;;;15.00;99.90;;;;;;5075448;28;20059;-86
2021/06/21 10:06:52;;;;;;;12.02;9.80;;;15.00;99.90;;;;;;5075148;28;20028;-86
2021/06/21 10:09:18;;;;;;;11.23;10.02;;;15.00;99.90;;;;;;5073857;28;20033;-86
2021/06/21 10:11:45;;;;;;;10.35;8.95;;;15.00;99.90;;;;;;5070489;28;20484;-87
2021/06/21 10:14:16;;;;;;;9.05;6.65;;;15.00;99.90;;;;;;5072179;28;20035;-88
2021/06/21 10:16:44;;;;;;;7.75;6.50;;;15.00;99.90;;;;;;5074322;28;20377;-87
2021/06/21 10:19:10;;;;;;;9.93;7.85;;;15.00;99.90;;;;;;5063050;28;20029;-87
2021/06/21 10:21:39;;;;;;;8.15;5.97;;;15.00;99.90;;;;;;5066022;28;20060;-87
2021/06/21 10:24:06;;;;;;;11.52;6.57;;;15.00;99.90;;;;;;5065846;28;20488;-86
2021/06/21 10:26:32;;;;;;;7.82;6.07;;;15.00;99.90;;;;;;5073035;28;20031;-86
2021/06/21 10:28:59;;;;;;;7.00;5.95;;;15.00;99.90;;;;;;5073786;28;20012;-86
2021/06/21 10:31:29;;;;;;;5.88;5.18;;;15.10;99.90;;;;;;5073290;28;20025;-86
2021/06/21 10:34:05;;;;;;;5.82;4.63;;;15.10;99.90;;;;;;5070166;28;20024;-86
2021/06/21 10:36:49;;;;;;;5.65;4.88;;;15.20;99.90;;;;;;5063004;28;20033;-87
2021/06/21 10:39:20;;;;;;;4.47;3.53;;;15.30;99.90;;;;;;5069635;28;20111;-86
2021/06/21 10:42:04;;;;;;;3.30;2.60;;;15.40;99.90;;;;;;5072958;28;20029;-86
2021/06/21 10:44:41;;;;;;;3.90;3.15;;;15.50;99.90;;;;;;5072672;28;20017;-86
2021/06/21 10:47:33;;;;;;;4.53;3.55;;;15.70;99.90;;;;;;5069801;28;20521;-86
2021/06/21 10:49:59;;;;;;;4.57;3.42;;;16.00;99.90;;;;;;5074123;28;20036;-86
2021/06/21 10:52:33;;;;;;;4.38;3.90;;;16.10;99.90;;;;;;5073039;28;20016;-85
2021/06/21 10:55:27;;;;;;;5.95;4.55;;;16.10;99.90;;;;;;5074036;28;20047;-85
2021/06/21 10:58:20;;;;;;;6.00;4.50;;;16.20;99.90;;;;;;5072455;28;20039;-86
2021/06/21 11:00:46;;;;;;;;;;;16.30;99.90;;;;;;5074284;28;20046;-87
2021/06/21 11:03:29;;;;;;;4.05;2.72;;;16.30;99.90;;;;;;5072164;28;19943;-86
2021/06/21 11:06:21;;;;;;;3.45;2.92;;;16.40;99.90;;;;;;5074277;28;20114;-85
2021/06/21 11:08:54;;;;;;;4.07;3.65;;;16.30;99.90;;;;;;5049488;28;20577;-85
2021/06/21 11:11:45;;;;;;;4.55;3.65;;;16.20;99.90;;;;;;5070832;28;20025;-86
2021/06/21 11:14:18;;;;;;;3.17;2.63;;;16.20;99.90;;;;;;5073264;28;20025;-86
2021/06/21 11:16:47;;;;;;;3.63;2.97;;;16.10;99.90;;;;;;5073513;28;20035;-86
2021/06/21 11:19:21;;;;;;;3.42;2.60;;;16.00;99.90;;;;;;5073444;28;20020;-86
2021/06/21 11:21:56;;;;;;;2.67;1.73;;;15.90;99.90;;;;;;5074053;28;20502;-85
2021/06/21 11:24:42;;;;;;;2.72;1.58;;;15.80;99.90;;;;;;5073618;28;20411;-85
2021/06/21 11:27:13;;;;;;;2.65;1.75;;;15.80;99.90;;;;;;5065589;28;20626;-86
2021/06/21 11:29:42;;;;;;;3.97;2.47;;;15.90;99.90;;;;;;5074755;28;20051;-86
2021/06/21 11:32:09;;;;;;;2.67;2.35;;;15.90;99.90;;;;;;5069361;28;20025;-85
2021/06/21 11:34:50;;;;;;;4.20;2.92;;;16.00;99.90;;;;;;5064036;28;20017;-85
2021/06/21 11:37:37;;;;;;;5.10;3.95;;;16.20;99.90;;;;;;5073313;28;20040;-85
2021/06/21 11:40:30;;;;;;;4.20;3.72;;;16.30;99.90;;;;;;5070236;28;20039;-85
2021/06/21 11:43:01;;;;;;;4.68;3.33;;;16.50;99.90;;;;;;5056067;28;20554;-85
2021/06/21 11:45:59;;;;;;;3.30;3.00;;;16.50;99.90;;;;;;5064928;28;20044;-85
2021/06/21 11:48:30;;;;;;;4.70;3.17;;;16.40;99.90;;;;;;5072235;28;20322;-85
2021/06/21 11:50:57;;;;;;;3.92;2.58;;;16.30;99.90;;;;;;5062855;28;20044;-85
2021/06/21 11:53:24;;;;;;;2.38;1.98;;;16.30;99.90;;;;;;5059744;28;20116;-84
2021/06/21 11:55:50;;;;;;;2.15;1.95;;;16.20;99.90;;;;;;5068604;28;20032;-85
2021/06/21 11:58:23;;;;;;;3.45;2.33;;;16.10;99.90;;;;;;5067994;28;20090;-84
2021/06/21 12:00:49;;;;;;;3.08;2.08;;;16.10;99.90;;;;;;5072415;28;20032;-84
2021/06/21 12:03:15;;;;;;;3.78;2.60;;;16.20;99.90;;;;;;5062935;28;20020;-85
2021/06/21 12:05:52;;;;;;;2.20;1.90;;;16.20;99.90;;;;;;5071790;28;20086;-84
2021/06/21 12:08:19;;;;;;;2.92;2.13;;;16.40;99.90;;;;;;5069717;28;20515;-84
2021/06/21 12:10:45;;;;;;;3.42;2.45;;;16.60;99.90;;;;;;5072916;28;20028;-84
2021/06/21 12:13:11;;;;;;;2.30;2.10;;;16.60;99.90;;;;;;5066437;28;20036;-84
2021/06/21 12:15:39;;;;;;;2.78;2.45;;;16.60;99.90;;;;;;5064423;28;20044;-84
2021/06/21 12:18:06;;;;;;;2.75;2.22;;;16.60;99.90;;;;;;5061922;28;20516;-85
2021/06/21 12:20:33;;;;;;;3.95;2.78;;;16.60;99.90;;;;;;5059223;28;20021;-84
2021/06/21 12:23:01;;;;;;;2.25;1.70;;;16.60;99.90;;;;;;5068779;28;20059;-85
2021/06/21 12:25:31;;;;;;;2.53;2.28;;;16.70;99.90;;;;;;5070595;28;20024;-85
2021/06/21 12:28:16;;;;;;;3.20;2.42;;;16.70;99.90;;;;;;5070219;28;20111;-85
2021/06/21 12:31:05;;;;;;;3.40;2.63;;;16.80;99.90;;;;;;5054533;28;20032;-85
2021/06/21 12:33:36;;;;;;;2.42;1.88;;;16.90;99.90;;;;;;5056710;28;20079;-85
2021/06/21 12:36:23;;;;;;;1.80;1.37;;;16.90;99.90;;;;;;5069334;28;20115;-84
2021/06/21 12:38:57;;;;;;;3.72;2.65;;;17.00;99.90;;;;;;5069626;28;20282;-84
2021/06/21 12:41:31;;;;;;;2.92;2.08;;;17.10;99.90;;;;;;5071287;28;20162;-85
2021/06/21 12:44:09;;;;;;;2.67;2.47;;;17.10;99.90;;;;;;5065096;28;20028;-85
2021/06/21 12:46:40;;;;;;;2.25;1.77;;;17.20;99.90;;;;;;5068452;28;20035;-84
2021/06/21 12:49:20;;;;;;;2.88;1.70;;;17.20;99.90;;;;;;5069280;28;20083;-85
2021/06/21 12:51:47;;;;;;;2.45;2.25;;;17.30;99.90;;;;;;5072837;28;20020;-85
2021/06/21 12:54:20;;;;;;;3.90;3.10;;;17.30;99.90;;;;;;5067347;28;20020;-84